createdAt,value
2023-02-19T00:00:51.406Z,52.83
2023-02-19T00:01:51.442Z,52.82
2023-02-19T00:02:51.402Z,52.82
2023-02-19T00:05:51.420Z,52.90
2023-02-19T00:06:51.513Z,53.06
2023-02-19T00:09:51.466Z,53.01
2023-02-19T00:10:51.440Z,53.10
2023-02-19T00:11:51.442Z,53.17
2023-02-19T00:14:51.476Z,53.28
2023-02-19T00:15:51.499Z,53.21
2023-02-19T00:16:51.459Z,53.21
2023-02-19T00:17:51.449Z,53.16
2023-02-19T00:18:51.441Z,53.16
2023-02-19T00:19:51.541Z,53.04
2023-02-19T00:20:51.491Z,53.04
2023-02-19T00:21:51.509Z,53.02
2023-02-19T00:22:51.475Z,53.06
2023-02-19T00:23:51.490Z,53.06
2023-02-19T00:24:51.531Z,53.01
2023-02-19T00:25:51.462Z,53.01
2023-02-19T00:27:51.478Z,52.82
2023-02-19T00:28:51.522Z,52.85
2023-02-19T00:30:51.496Z,52.91
2023-02-19T00:31:51.688Z,52.95
2023-02-19T00:34:51.526Z,52.99
2023-02-19T00:35:51.525Z,53.00
2023-02-19T00:36:51.524Z,53.01
2023-02-19T00:38:51.507Z,53.00
2023-02-19T00:40:51.495Z,53.02
2023-02-19T00:41:51.509Z,53.06
2023-02-19T00:42:51.518Z,53.08
2023-02-19T00:43:51.528Z,53.11
2023-02-19T00:44:51.582Z,53.15
2023-02-19T00:45:51.518Z,53.09
2023-02-19T00:46:51.572Z,53.09
2023-02-19T00:48:51.562Z,53.24
2023-02-19T00:52:51.594Z,53.20
2023-02-19T00:53:51.580Z,53.22
2023-02-19T00:54:51.583Z,53.20
2023-02-19T00:55:51.575Z,53.20
2023-02-19T00:56:51.629Z,53.19
2023-02-19T00:57:51.634Z,53.22
2023-02-19T00:59:51.601Z,53.22
2023-02-19T01:00:51.556Z,53.28
2023-02-19T01:01:51.648Z,53.28
2023-02-19T01:03:51.614Z,53.30
2023-02-19T01:04:51.647Z,53.30
2023-02-19T01:05:51.595Z,53.36
2023-02-19T01:06:51.614Z,53.46
2023-02-19T01:07:51.638Z,53.42
2023-02-19T01:08:51.633Z,53.58
2023-02-19T01:09:51.601Z,53.58
2023-02-19T01:10:51.633Z,54.05
2023-02-19T01:11:51.620Z,54.05
2023-02-19T01:12:51.655Z,54.06
2023-02-19T01:13:51.642Z,54.12
2023-02-19T01:14:51.665Z,54.12
2023-02-19T01:15:51.616Z,54.12
2023-02-19T01:17:51.690Z,54.12
2023-02-19T01:18:51.612Z,54.12
2023-02-19T01:19:51.623Z,54.36
2023-02-19T01:20:51.636Z,54.36
2023-02-19T01:21:51.647Z,54.26
2023-02-19T01:22:51.681Z,54.64
2023-02-19T01:23:51.623Z,54.64
2023-02-19T01:24:51.625Z,54.80
2023-02-19T01:25:51.632Z,55.22
2023-02-19T01:26:51.646Z,55.22
2023-02-19T01:27:51.655Z,55.27
2023-02-19T01:28:51.658Z,55.27
2023-02-19T01:29:51.677Z,55.67
2023-02-19T01:30:51.652Z,55.67
2023-02-19T01:31:51.680Z,55.93
2023-02-19T01:32:51.707Z,56.12
2023-02-19T01:33:51.666Z,56.11
2023-02-19T01:34:51.661Z,56.11
2023-02-19T01:35:51.642Z,55.92
2023-02-19T01:36:51.677Z,55.92
2023-02-19T01:37:51.718Z,55.84
2023-02-19T01:38:51.692Z,55.69
2023-02-19T01:39:51.652Z,55.53
2023-02-19T01:40:51.657Z,55.42
2023-02-19T01:41:51.657Z,55.31
2023-02-19T01:42:51.690Z,55.22
2023-02-19T01:43:51.678Z,55.12
2023-02-19T01:44:51.668Z,55.08
2023-02-19T01:45:51.656Z,55.08
2023-02-19T01:46:51.734Z,55.05
2023-02-19T01:47:51.736Z,55.00
2023-02-19T01:48:51.670Z,55.00
2023-02-19T01:49:51.719Z,54.99
2023-02-19T01:50:51.730Z,54.96
2023-02-19T01:51:51.699Z,54.90
2023-02-19T01:52:51.734Z,54.80
2023-02-19T01:53:51.689Z,54.80
2023-02-19T01:54:51.720Z,54.68
2023-02-19T01:55:51.701Z,54.53
2023-02-19T01:56:51.739Z,54.47
2023-02-19T01:57:51.744Z,54.47
2023-02-19T01:58:51.729Z,54.39
2023-02-19T02:00:51.903Z,54.21
2023-02-19T02:02:51.706Z,54.17
2023-02-19T02:03:51.708Z,54.23
2023-02-19T02:05:51.815Z,54.19
2023-02-19T02:07:51.787Z,54.13
2023-02-19T02:11:51.771Z,54.10
2023-02-19T02:12:51.767Z,54.10
2023-02-19T02:13:51.780Z,54.10
2023-02-19T02:14:51.771Z,54.29
2023-02-19T02:15:51.897Z,54.43
2023-02-19T02:16:51.811Z,54.41
2023-02-19T02:17:51.787Z,54.41
2023-02-19T02:18:51.752Z,54.35
2023-02-19T02:19:51.755Z,54.26
2023-02-19T02:20:51.825Z,54.26
2023-02-19T02:22:51.802Z,54.20
2023-02-19T02:24:51.813Z,54.14
2023-02-19T02:25:51.798Z,54.14
2023-02-19T02:26:51.799Z,54.20
2023-02-19T02:27:51.819Z,54.18
2023-02-19T02:30:51.881Z,54.24
2023-02-19T02:31:51.890Z,54.49
2023-02-19T02:32:51.789Z,54.65
2023-02-19T02:33:51.833Z,54.61
2023-02-19T02:34:51.828Z,54.61
2023-02-19T02:35:51.835Z,54.79
2023-02-19T02:36:51.838Z,54.79
2023-02-19T02:37:51.796Z,54.84
2023-02-19T02:38:51.849Z,54.99
2023-02-19T02:39:51.839Z,55.03
2023-02-19T02:41:51.863Z,55.02
2023-02-19T02:42:51.812Z,55.02
2023-02-19T02:43:51.891Z,54.84
2023-02-19T02:44:51.833Z,54.68
2023-02-19T02:45:51.869Z,54.65
2023-02-19T02:46:51.851Z,54.54
2023-02-19T02:47:51.820Z,54.54
2023-02-19T02:48:51.812Z,54.45
2023-02-19T02:49:51.896Z,54.54
2023-02-19T02:50:51.876Z,54.54
2023-02-19T02:52:51.828Z,54.50
2023-02-19T02:54:51.882Z,54.51
2023-02-19T02:55:51.875Z,54.51
2023-02-19T02:56:51.879Z,54.50
2023-02-19T03:02:51.903Z,54.29
2023-02-19T03:03:51.896Z,54.29
2023-02-19T03:04:51.936Z,54.28
2023-02-19T03:05:51.931Z,54.38
2023-02-19T03:06:51.910Z,54.46
2023-02-19T03:07:51.924Z,54.54
2023-02-19T03:08:51.872Z,54.54
2023-02-19T03:09:51.912Z,54.58
2023-02-19T03:13:51.901Z,54.62
2023-02-19T03:14:51.886Z,54.57
2023-02-19T03:15:51.904Z,54.56
2023-02-19T03:16:51.931Z,54.56
2023-02-19T03:17:51.974Z,54.73
2023-02-19T03:18:51.919Z,54.73
2023-02-19T03:22:51.916Z,54.73
2023-02-19T03:23:51.961Z,54.60
2023-02-19T03:24:51.914Z,54.55
2023-02-19T03:25:51.925Z,54.57
2023-02-19T03:26:51.954Z,54.59
2023-02-19T03:28:51.958Z,54.53
2023-02-19T03:30:51.948Z,54.50
2023-02-19T03:31:52.045Z,54.51
2023-02-19T03:32:51.963Z,54.38
2023-02-19T03:33:51.928Z,54.31
2023-02-19T03:34:51.977Z,54.29
2023-02-19T03:35:51.986Z,54.37
2023-02-19T03:36:51.954Z,54.36
2023-02-19T03:37:51.982Z,54.32
2023-02-19T03:39:51.977Z,54.33
2023-02-19T03:40:51.943Z,54.33
2023-02-19T03:41:51.961Z,54.34
2023-02-19T03:42:53.744Z,54.34
2023-02-19T03:44:51.999Z,54.59
2023-02-19T03:46:51.981Z,54.55
2023-02-19T03:47:51.978Z,54.69
2023-02-19T03:48:51.988Z,54.83
2023-02-19T03:49:51.978Z,54.92
2023-02-19T03:50:52.016Z,54.93
2023-02-19T03:51:52.000Z,54.91
2023-02-19T03:52:52.023Z,54.91
2023-02-19T03:53:52.031Z,54.88
2023-02-19T03:54:52.015Z,54.88
2023-02-19T03:55:52.026Z,54.71
2023-02-19T03:56:52.006Z,54.65
2023-02-19T03:57:52.010Z,54.58
2023-02-19T03:58:52.008Z,54.48
2023-02-19T03:59:51.993Z,54.48
2023-02-19T04:00:52.044Z,54.38
2023-02-19T04:01:52.100Z,54.38
2023-02-19T04:02:52.042Z,54.20
2023-02-19T04:03:52.048Z,54.14
2023-02-19T04:04:52.113Z,53.95
2023-02-19T04:07:52.066Z,53.96
2023-02-19T04:08:52.242Z,54.01
2023-02-19T04:09:52.033Z,54.16
2023-02-19T04:10:52.106Z,54.10
2023-02-19T04:11:52.072Z,54.10
2023-02-19T04:12:52.035Z,54.39
2023-02-19T04:13:52.073Z,55.02
2023-02-19T04:14:52.167Z,55.34
2023-02-19T04:15:52.080Z,55.47
2023-02-19T04:16:52.118Z,55.47
2023-02-19T04:17:52.058Z,55.63
2023-02-19T04:18:52.147Z,56.07
2023-02-19T04:19:52.053Z,55.85
2023-02-19T04:20:52.084Z,55.87
2023-02-19T04:21:52.149Z,56.02
2023-02-19T04:23:52.092Z,56.11
2023-02-19T04:24:52.066Z,55.90
2023-02-19T04:25:52.115Z,56.00
2023-02-19T04:26:52.072Z,56.00
2023-02-19T04:27:52.108Z,55.71
2023-02-19T04:28:52.110Z,55.58
2023-02-19T04:30:52.157Z,55.82
2023-02-19T04:31:52.172Z,55.88
2023-02-19T04:32:52.126Z,56.07
2023-02-19T04:33:52.115Z,55.98
2023-02-19T04:34:54.164Z,55.98
2023-02-19T04:35:52.141Z,55.75
2023-02-19T04:36:52.133Z,55.66
2023-02-19T04:37:52.075Z,55.66
2023-02-19T04:39:52.089Z,55.78
2023-02-19T04:40:52.077Z,55.50
2023-02-19T04:41:52.172Z,55.96
2023-02-19T04:42:52.092Z,55.96
2023-02-19T04:43:52.099Z,55.73
2023-02-19T04:45:52.137Z,55.88
2023-02-19T04:46:52.133Z,56.10
2023-02-19T04:47:52.109Z,55.67
2023-02-19T04:48:52.148Z,56.05
2023-02-19T04:49:52.146Z,55.76
2023-02-19T04:50:52.151Z,55.61
2023-02-19T04:51:52.154Z,56.08
2023-02-19T04:52:52.171Z,55.84
2023-02-19T04:53:52.115Z,55.89
2023-02-19T04:54:52.131Z,55.83
2023-02-19T04:55:52.120Z,55.98
2023-02-19T04:57:52.174Z,56.51
2023-02-19T04:58:52.175Z,57.35
2023-02-19T04:59:52.135Z,57.38
2023-02-19T05:00:52.174Z,56.87
2023-02-19T05:01:52.223Z,57.29
2023-02-19T05:02:52.172Z,57.25
2023-02-19T05:03:52.194Z,58.10
2023-02-19T05:04:52.190Z,58.44
2023-02-19T05:05:52.176Z,58.37
2023-02-19T05:06:52.210Z,58.77
2023-02-19T05:07:52.199Z,59.09
2023-02-19T05:08:52.206Z,59.14
2023-02-19T05:09:52.255Z,59.29
2023-02-19T05:10:52.187Z,59.66
2023-02-19T05:11:52.168Z,60.00
2023-02-19T05:12:52.175Z,59.78
2023-02-19T05:14:52.242Z,59.54
2023-02-19T05:15:52.200Z,59.54
2023-02-19T05:16:52.212Z,59.89
2023-02-19T05:17:52.184Z,60.12
2023-02-19T05:18:52.231Z,60.12
2023-02-19T05:19:52.228Z,59.73
2023-02-19T05:20:52.239Z,59.73
2023-02-19T05:21:52.240Z,59.62
2023-02-19T05:22:52.220Z,59.58
2023-02-19T05:23:52.233Z,59.46
2023-02-19T05:24:52.242Z,59.37
2023-02-19T05:25:52.266Z,59.05
2023-02-19T05:26:52.199Z,59.08
2023-02-19T05:27:52.274Z,59.48
2023-02-19T05:29:52.258Z,58.83
2023-02-19T05:30:52.305Z,58.77
2023-02-19T05:31:52.305Z,58.40
2023-02-19T05:34:52.245Z,58.64
2023-02-19T05:35:52.221Z,58.56
2023-02-19T05:36:52.228Z,58.66
2023-02-19T05:37:52.277Z,58.68
2023-02-19T05:39:52.301Z,58.32
2023-02-19T05:40:52.272Z,58.62
2023-02-19T05:41:52.252Z,58.62
2023-02-19T05:42:52.251Z,58.19
2023-02-19T05:43:52.279Z,58.21
2023-02-19T05:44:52.254Z,58.28
2023-02-19T05:45:52.301Z,58.07
2023-02-19T05:46:52.259Z,57.89
2023-02-19T05:47:52.262Z,58.16
2023-02-19T05:48:52.256Z,57.81
2023-02-19T05:50:52.264Z,57.70
2023-02-19T05:51:52.294Z,57.75
2023-02-19T05:52:52.320Z,58.05
2023-02-19T05:53:52.308Z,58.05
2023-02-19T05:54:52.301Z,57.79
2023-02-19T05:55:52.315Z,57.79
2023-02-19T05:56:52.312Z,57.83
2023-02-19T05:57:52.276Z,57.85
2023-02-19T05:58:52.326Z,57.76
2023-02-19T05:59:52.273Z,57.76
2023-02-19T06:00:52.298Z,57.61
2023-02-19T06:01:52.294Z,57.64
2023-02-19T06:02:52.356Z,57.48
2023-02-19T06:03:52.730Z,57.48
2023-02-19T06:04:52.340Z,57.44
2023-02-19T06:05:52.353Z,57.41
2023-02-19T06:06:52.348Z,57.62
2023-02-19T06:07:52.318Z,57.36
2023-02-19T06:08:52.297Z,56.96
2023-02-19T06:10:52.323Z,57.06
2023-02-19T06:11:52.363Z,57.16
2023-02-19T06:12:52.315Z,57.16
2023-02-19T06:13:52.343Z,56.99
2023-02-19T06:14:52.312Z,57.05
2023-02-19T06:15:52.379Z,57.04
2023-02-19T06:16:52.324Z,57.14
2023-02-19T06:17:52.328Z,56.93
2023-02-19T06:18:52.328Z,57.00
2023-02-19T06:19:52.410Z,56.93
2023-02-19T06:20:52.375Z,56.93
2023-02-19T06:21:52.386Z,56.78
2023-02-19T06:23:52.374Z,56.66
2023-02-19T06:24:52.431Z,57.01
2023-02-19T06:25:52.407Z,56.74
2023-02-19T06:26:52.362Z,57.16
2023-02-19T06:27:52.355Z,56.83
2023-02-19T06:28:52.408Z,56.82
2023-02-19T06:29:52.374Z,56.90
2023-02-19T06:30:52.379Z,56.44
2023-02-19T06:31:52.514Z,56.47
2023-02-19T06:32:55.055Z,56.35
2023-02-19T06:33:52.372Z,56.35
2023-02-19T06:37:52.399Z,56.17
2023-02-19T06:38:52.422Z,56.07
2023-02-19T06:39:52.439Z,56.51
2023-02-19T06:41:52.433Z,56.25
2023-02-19T06:42:52.438Z,56.35
2023-02-19T06:43:52.443Z,56.41
2023-02-19T06:44:52.477Z,56.33
2023-02-19T06:45:52.435Z,56.33
2023-02-19T06:46:52.442Z,56.40
2023-02-19T06:47:52.440Z,56.38
2023-02-19T06:50:52.436Z,55.88
2023-02-19T06:51:52.475Z,55.60
2023-02-19T06:52:52.445Z,55.77
2023-02-19T06:53:52.439Z,56.34
2023-02-19T06:54:52.496Z,56.19
2023-02-19T06:55:52.429Z,56.19
2023-02-19T06:56:52.487Z,56.29
2023-02-19T06:57:52.452Z,56.13
2023-02-19T06:58:52.439Z,56.02
2023-02-19T06:59:52.549Z,55.76
2023-02-19T07:00:52.506Z,56.14
2023-02-19T07:01:52.450Z,56.07
2023-02-19T07:02:52.487Z,55.85
2023-02-19T07:03:52.572Z,55.85
2023-02-19T07:04:52.488Z,55.88
2023-02-19T07:05:52.443Z,55.76
2023-02-19T07:06:52.494Z,55.68
2023-02-19T07:07:52.496Z,55.84
2023-02-19T07:09:52.494Z,55.52
2023-02-19T07:12:52.479Z,55.65
2023-02-19T07:13:52.484Z,55.60
2023-02-19T07:14:52.501Z,55.60
2023-02-19T07:15:52.588Z,55.42
2023-02-19T07:16:52.532Z,55.42
2023-02-19T07:17:52.520Z,55.32
2023-02-19T07:18:52.480Z,55.26
2023-02-19T07:19:52.486Z,55.17
2023-02-19T07:20:52.553Z,55.30
2023-02-19T07:21:52.542Z,55.37
2023-02-19T07:22:52.490Z,55.37
2023-02-19T07:23:52.502Z,55.17
2023-02-19T07:24:52.545Z,55.28
2023-02-19T07:25:52.592Z,55.25
2023-02-19T07:26:52.551Z,55.22
2023-02-19T07:27:52.566Z,55.22
2023-02-19T07:28:52.546Z,55.17
2023-02-19T07:30:52.551Z,55.19
2023-02-19T07:31:52.638Z,55.30
2023-02-19T07:32:52.515Z,55.30
2023-02-19T07:33:52.573Z,55.67
2023-02-19T07:34:52.580Z,55.86
2023-02-19T07:35:52.561Z,55.86
2023-02-19T07:36:52.580Z,55.80
2023-02-19T07:37:52.554Z,55.86
2023-02-19T07:38:52.575Z,56.11
2023-02-19T07:39:52.541Z,56.11
2023-02-19T07:40:52.548Z,55.97
2023-02-19T07:41:52.556Z,55.91
2023-02-19T07:42:52.552Z,55.45
2023-02-19T07:44:52.554Z,55.27
2023-02-19T07:45:52.631Z,55.16
2023-02-19T07:46:52.608Z,55.17
2023-02-19T07:48:52.600Z,55.04
2023-02-19T07:49:52.568Z,55.04
2023-02-19T07:50:52.559Z,54.91
2023-02-19T07:52:52.595Z,55.37
2023-02-19T07:53:52.579Z,55.34
2023-02-19T07:54:52.621Z,55.34
2023-02-19T07:55:52.624Z,55.06
2023-02-19T07:57:52.586Z,54.97
2023-02-19T07:58:52.611Z,55.04
2023-02-19T07:59:52.664Z,54.92
2023-02-19T08:01:52.650Z,54.55
2023-02-19T08:02:52.645Z,54.75
2023-02-19T08:03:52.643Z,54.51
2023-02-19T08:04:52.672Z,54.30
2023-02-19T08:05:52.650Z,54.27
2023-02-19T08:06:52.646Z,54.28
2023-02-19T08:07:52.613Z,54.28
2023-02-19T08:08:52.656Z,54.18
2023-02-19T08:09:52.654Z,54.05
2023-02-19T08:10:52.663Z,54.01
2023-02-19T08:11:52.667Z,54.21
2023-02-19T08:13:52.633Z,53.68
2023-02-19T08:14:52.672Z,53.76
2023-02-19T08:15:52.664Z,53.84
2023-02-19T08:16:52.682Z,53.89
2023-02-19T08:17:52.695Z,53.88
2023-02-19T08:18:52.650Z,53.66
2023-02-19T08:19:52.648Z,53.67
2023-02-19T08:20:52.684Z,53.67
2023-02-19T08:21:52.662Z,53.60
2023-02-19T08:22:52.708Z,53.73
2023-02-19T08:23:52.656Z,53.73
2023-02-19T08:24:52.645Z,53.42
2023-02-19T08:25:52.665Z,53.28
2023-02-19T08:26:52.667Z,53.11
2023-02-19T08:28:52.676Z,53.23
2023-02-19T08:29:52.706Z,53.09
2023-02-19T08:30:52.688Z,52.85
2023-02-19T08:32:52.678Z,52.79
2023-02-19T08:33:52.682Z,52.79
2023-02-19T08:34:52.696Z,52.74
2023-02-19T08:35:52.722Z,52.74
2023-02-19T08:36:52.727Z,52.79
2023-02-19T08:37:52.675Z,52.79
2023-02-19T08:38:52.695Z,52.63
2023-02-19T08:39:52.735Z,52.55
2023-02-19T08:40:52.731Z,52.63
2023-02-19T08:41:52.753Z,52.80
2023-02-19T08:42:52.683Z,52.88
2023-02-19T08:43:52.720Z,52.75
2023-02-19T08:44:52.769Z,52.92
2023-02-19T08:45:52.765Z,52.92
2023-02-19T08:46:52.729Z,52.73
2023-02-19T08:47:52.723Z,52.63
2023-02-19T08:48:52.719Z,52.63
2023-02-19T08:49:52.756Z,52.17
2023-02-19T08:50:52.745Z,52.17
2023-02-19T08:51:52.726Z,52.09
2023-02-19T08:53:52.748Z,51.81
2023-02-19T08:54:52.761Z,51.79
2023-02-19T08:55:52.808Z,51.61
2023-02-19T08:56:52.725Z,51.61
2023-02-19T08:57:52.739Z,51.44
2023-02-19T08:58:52.750Z,51.41
2023-02-19T08:59:52.736Z,51.41
2023-02-19T09:00:52.806Z,51.19
2023-02-19T09:01:52.772Z,51.15
2023-02-19T09:02:52.751Z,51.11
2023-02-19T09:03:52.886Z,51.36
2023-02-19T09:04:52.749Z,51.23
2023-02-19T09:05:52.753Z,51.17
2023-02-19T09:06:52.760Z,51.17
2023-02-19T09:07:52.769Z,51.36
2023-02-19T09:08:52.813Z,50.92
2023-02-19T09:09:52.767Z,50.92
2023-02-19T09:10:52.926Z,50.83
2023-02-19T09:11:52.761Z,50.83
2023-02-19T09:12:52.815Z,51.03
2023-02-19T09:13:52.800Z,51.08
2023-02-19T09:14:52.823Z,51.19
2023-02-19T09:15:52.928Z,51.19
2023-02-19T09:16:52.826Z,51.08
2023-02-19T09:17:52.807Z,51.08
2023-02-19T09:18:52.869Z,51.11
2023-02-19T09:19:52.818Z,51.11
2023-02-19T09:20:52.783Z,51.09
2023-02-19T09:21:52.794Z,51.12
2023-02-19T09:23:52.802Z,51.24
2023-02-19T09:24:52.804Z,51.24
2023-02-19T09:25:52.808Z,50.94
2023-02-19T09:26:52.894Z,51.11
2023-02-19T09:27:52.818Z,50.87
2023-02-19T09:28:52.814Z,50.81
2023-02-19T09:29:52.996Z,50.74
2023-02-19T09:31:52.877Z,50.66
2023-02-19T09:32:52.831Z,50.61
2023-02-19T09:33:52.827Z,50.61
2023-02-19T09:34:52.898Z,50.69
2023-02-19T09:35:52.872Z,50.69
2023-02-19T09:36:52.832Z,50.85
2023-02-19T09:37:52.838Z,50.77
2023-02-19T09:38:52.833Z,50.77
2023-02-19T09:39:52.880Z,50.50
2023-02-19T09:43:52.867Z,50.87
2023-02-19T09:44:52.889Z,51.34
2023-02-19T09:45:52.924Z,51.34
2023-02-19T09:46:52.911Z,51.26
2023-02-19T09:47:52.910Z,51.35
2023-02-19T09:48:52.867Z,51.56
2023-02-19T09:49:52.908Z,51.65
2023-02-19T09:50:52.907Z,51.65
2023-02-19T09:51:52.880Z,51.41
2023-02-19T09:52:52.878Z,51.33
2023-02-19T09:53:52.919Z,51.33
2023-02-19T09:55:52.914Z,49.94
2023-02-19T09:56:52.910Z,49.95
2023-02-19T09:57:52.956Z,49.53
2023-02-19T09:58:52.929Z,49.48
2023-02-19T09:59:52.911Z,49.36
2023-02-19T10:00:52.889Z,49.31
2023-02-19T10:01:52.938Z,49.33
2023-02-19T10:02:52.960Z,49.30
2023-02-19T10:03:52.895Z,49.20
2023-02-19T10:04:53.021Z,49.37
2023-02-19T10:05:52.920Z,49.55
2023-02-19T10:07:53.014Z,49.70
2023-02-19T10:08:52.910Z,49.70
2023-02-19T10:09:52.923Z,49.93
2023-02-19T10:10:52.925Z,49.94
2023-02-19T10:11:52.925Z,50.40
2023-02-19T10:12:52.987Z,50.61
2023-02-19T10:13:52.932Z,50.61
2023-02-19T10:16:52.945Z,50.67
2023-02-19T10:17:53.007Z,50.46
2023-02-19T10:18:52.980Z,50.73
2023-02-19T10:20:52.959Z,50.81
2023-02-19T10:22:52.987Z,50.84
2023-02-19T10:23:53.037Z,50.92
2023-02-19T10:24:52.989Z,50.82
2023-02-19T10:25:52.971Z,51.47
2023-02-19T10:26:52.960Z,51.83
2023-02-19T10:27:53.031Z,51.89
2023-02-19T10:28:52.961Z,52.14
2023-02-19T10:30:53.107Z,52.34
2023-02-19T10:31:53.026Z,52.30
2023-02-19T10:32:53.178Z,52.16
2023-02-19T10:33:53.005Z,52.21
2023-02-19T10:34:52.984Z,52.21
2023-02-19T10:35:52.992Z,52.16
2023-02-19T10:36:52.978Z,52.04
2023-02-19T10:37:53.020Z,52.06
2023-02-19T10:38:52.985Z,52.24
2023-02-19T10:39:53.048Z,52.28
2023-02-19T10:40:53.067Z,52.10
2023-02-19T10:41:53.009Z,51.87
2023-02-19T10:42:53.054Z,51.58
2023-02-19T10:43:53.035Z,51.23
2023-02-19T10:44:53.011Z,51.23
2023-02-19T10:45:53.045Z,51.06
2023-02-19T10:46:53.061Z,50.97
2023-02-19T10:47:53.061Z,50.61
2023-02-19T10:48:53.017Z,50.50
2023-02-19T10:49:53.045Z,50.50
2023-02-19T10:50:53.024Z,50.39
2023-02-19T10:51:53.022Z,49.92
2023-02-19T10:52:53.030Z,49.87
2023-02-19T10:53:53.091Z,49.94
2023-02-19T10:54:53.029Z,50.53
2023-02-19T10:55:53.042Z,50.43
2023-02-19T10:56:53.042Z,50.43
2023-02-19T10:57:53.052Z,51.09
2023-02-19T10:58:53.104Z,50.84
2023-02-19T10:59:53.086Z,50.90
2023-02-19T11:00:53.085Z,50.40
2023-02-19T11:01:53.131Z,49.40
2023-02-19T11:02:53.078Z,49.40
2023-02-19T11:03:53.117Z,48.73
2023-02-19T11:04:53.096Z,48.49
2023-02-19T11:05:53.085Z,48.49
2023-02-19T11:06:53.113Z,48.43
2023-02-19T11:07:53.125Z,48.63
2023-02-19T11:08:53.096Z,48.98
2023-02-19T11:09:53.109Z,49.08
2023-02-19T11:10:53.103Z,49.08
2023-02-19T11:11:53.153Z,48.99
2023-02-19T11:12:53.099Z,48.99
2023-02-19T11:13:53.127Z,49.09
2023-02-19T11:14:53.108Z,49.14
2023-02-19T11:15:53.138Z,49.25
2023-02-19T11:16:53.150Z,49.18
2023-02-19T11:17:53.125Z,49.64
2023-02-19T11:18:54.827Z,50.39
2023-02-19T11:19:53.085Z,50.39
2023-02-19T11:20:53.120Z,50.57
2023-02-19T11:21:53.132Z,49.80
2023-02-19T11:22:53.123Z,49.80
2023-02-19T11:23:53.148Z,48.88
2023-02-19T11:24:56.707Z,48.88
2023-02-19T11:25:53.108Z,48.76
2023-02-19T11:26:53.116Z,48.69
2023-02-19T11:27:53.124Z,48.76
2023-02-19T11:28:53.108Z,48.76
2023-02-19T11:29:53.121Z,48.74
2023-02-19T11:30:53.162Z,48.33
2023-02-19T11:31:53.229Z,48.33
2023-02-19T11:32:53.158Z,47.83
2023-02-19T11:33:53.194Z,47.68
2023-02-19T11:34:53.232Z,47.52
2023-02-19T11:35:53.166Z,47.33
2023-02-19T11:37:53.206Z,47.49
2023-02-19T11:38:53.175Z,47.36
2023-02-19T11:39:53.262Z,47.77
2023-02-19T11:40:53.149Z,47.77
2023-02-19T11:41:53.152Z,48.05
2023-02-19T11:42:53.194Z,48.05
2023-02-19T11:43:53.177Z,48.05
2023-02-19T11:44:53.229Z,48.56
2023-02-19T11:45:53.185Z,48.56
2023-02-19T11:46:53.189Z,48.35
2023-02-19T11:47:53.180Z,48.26
2023-02-19T11:48:53.202Z,48.26
2023-02-19T11:49:53.255Z,47.71
2023-02-19T11:50:53.208Z,47.71
2023-02-19T11:51:53.223Z,47.43
2023-02-19T11:52:53.253Z,47.43
2023-02-19T11:53:53.217Z,47.43
2023-02-19T11:54:53.205Z,48.11
2023-02-19T11:55:53.186Z,48.11
2023-02-19T11:56:53.190Z,48.13
2023-02-19T11:57:53.221Z,48.15
2023-02-19T11:59:53.197Z,48.13
2023-02-19T12:00:53.243Z,47.94
2023-02-19T12:01:53.292Z,48.63
2023-02-19T12:02:53.284Z,48.98
2023-02-19T12:03:53.201Z,48.98
2023-02-19T12:04:53.292Z,49.08
2023-02-19T12:05:53.239Z,49.36
2023-02-19T12:06:53.208Z,49.20
2023-02-19T12:07:53.246Z,49.14
2023-02-19T12:08:53.214Z,48.85
2023-02-19T12:09:53.251Z,48.85
2023-02-19T12:10:53.257Z,48.31
2023-02-19T12:11:53.321Z,48.14
2023-02-19T12:12:53.299Z,48.14
2023-02-19T12:13:53.252Z,48.42
2023-02-19T12:15:53.253Z,48.36
2023-02-19T12:16:53.233Z,48.36
2023-02-19T12:17:53.280Z,48.43
2023-02-19T12:18:53.265Z,48.52
2023-02-19T12:19:53.284Z,48.52
2023-02-19T12:20:53.323Z,48.61
2023-02-19T12:21:53.305Z,48.69
2023-02-19T12:22:53.289Z,48.78
2023-02-19T12:23:53.294Z,48.78
2023-02-19T12:24:53.294Z,48.83
2023-02-19T12:25:53.341Z,48.82
2023-02-19T12:27:53.291Z,48.41
2023-02-19T12:28:53.314Z,48.43
2023-02-19T12:29:53.294Z,48.33
2023-02-19T12:30:53.368Z,48.39
2023-02-19T12:31:53.373Z,48.45
2023-02-19T12:32:53.329Z,48.54
2023-02-19T12:33:53.333Z,48.66
2023-02-19T12:34:53.322Z,48.67
2023-02-19T12:35:53.326Z,48.67
2023-02-19T12:36:53.327Z,48.86
2023-02-19T12:37:53.287Z,48.86
2023-02-19T12:38:53.345Z,48.82
2023-02-19T12:40:53.291Z,48.82
2023-02-19T12:41:53.301Z,49.02
2023-02-19T12:42:53.305Z,49.15
2023-02-19T12:43:53.347Z,49.12
2023-02-19T12:44:53.337Z,49.22
2023-02-19T12:45:53.368Z,49.09
2023-02-19T12:46:53.299Z,49.09
2023-02-19T12:47:53.326Z,49.10
2023-02-19T12:48:53.466Z,49.45
2023-02-19T12:51:53.354Z,49.25
2023-02-19T12:52:53.326Z,49.29
2023-02-19T12:53:53.381Z,49.51
2023-02-19T12:54:55.681Z,49.51
2023-02-19T12:55:53.346Z,49.53
2023-02-19T12:56:53.364Z,49.53
2023-02-19T12:57:53.349Z,49.20
2023-02-19T12:58:53.385Z,49.12
2023-02-19T12:59:53.376Z,49.12
2023-02-19T13:00:53.370Z,49.12
2023-02-19T13:01:53.379Z,49.16
2023-02-19T13:02:53.388Z,49.00
2023-02-19T13:03:53.426Z,49.11
2023-02-19T13:05:53.398Z,49.05
2023-02-19T13:06:53.361Z,49.05
2023-02-19T13:09:05.853Z,49.06
2023-02-19T13:09:53.380Z,49.27
2023-02-19T13:10:53.407Z,49.25
2023-02-19T13:11:53.452Z,49.25
2023-02-19T13:13:53.385Z,49.35
2023-02-19T13:14:53.430Z,50.08
2023-02-19T13:15:53.423Z,50.02
2023-02-19T13:16:53.531Z,50.42
2023-02-19T13:17:53.394Z,50.42
2023-02-19T13:18:53.454Z,50.23
2023-02-19T13:19:53.418Z,50.33
2023-02-19T13:20:53.405Z,50.34
2023-02-19T13:21:53.439Z,50.34
2023-02-19T13:22:53.445Z,50.67
2023-02-19T13:23:53.415Z,50.71
2023-02-19T13:24:53.475Z,50.74
2023-02-19T13:25:55.191Z,50.50
2023-02-19T13:26:53.461Z,50.64
2023-02-19T13:27:53.455Z,50.64
2023-02-19T13:28:53.454Z,50.64
2023-02-19T13:29:53.568Z,50.53
2023-02-19T13:30:53.524Z,50.44
2023-02-19T13:32:53.471Z,50.18
2023-02-19T13:33:53.451Z,50.02
2023-02-19T13:34:53.437Z,49.89
2023-02-19T13:35:53.443Z,49.90
2023-02-19T13:36:53.482Z,49.82
2023-02-19T13:37:53.507Z,49.75
2023-02-19T13:38:53.474Z,49.75
2023-02-19T13:39:53.507Z,49.48
2023-02-19T13:40:53.457Z,49.52
2023-02-19T13:41:53.469Z,49.35
2023-02-19T13:42:53.535Z,49.26
2023-02-19T13:43:53.492Z,49.26
2023-02-19T13:44:57.149Z,49.61
2023-02-19T13:46:53.470Z,49.52
2023-02-19T13:47:53.507Z,49.49
2023-02-19T13:48:53.459Z,49.49
2023-02-19T13:49:53.507Z,49.25
2023-02-19T13:50:53.470Z,49.25
2023-02-19T13:51:53.515Z,48.85
2023-02-19T13:52:53.541Z,48.61
2023-02-19T13:53:53.482Z,48.38
2023-02-19T13:54:53.520Z,48.29
2023-02-19T13:55:53.500Z,48.29
2023-02-19T13:56:53.487Z,48.32
2023-02-19T13:57:53.552Z,48.52
2023-02-19T13:58:53.526Z,48.52
2023-02-19T13:59:53.513Z,48.54
2023-02-19T14:00:53.519Z,48.63
2023-02-19T14:01:53.573Z,48.48
2023-02-19T14:02:53.573Z,48.40
2023-02-19T14:03:53.539Z,48.38
2023-02-19T14:04:53.561Z,48.36
2023-02-19T14:05:53.544Z,48.36
2023-02-19T14:06:53.551Z,48.19
2023-02-19T14:08:53.560Z,48.18
2023-02-19T14:09:53.554Z,47.86
2023-02-19T14:10:53.560Z,48.12
2023-02-19T14:11:53.560Z,48.12
2023-02-19T14:12:53.802Z,48.03
2023-02-19T14:13:53.556Z,47.98
2023-02-19T14:14:53.585Z,47.98
2023-02-19T14:15:53.616Z,47.46
2023-02-19T14:16:53.561Z,47.46
2023-02-19T14:17:53.572Z,47.79
2023-02-19T14:18:53.559Z,47.86
2023-02-19T14:19:53.572Z,47.86
2023-02-19T14:20:53.574Z,48.24
2023-02-19T14:21:53.579Z,48.18
2023-02-19T14:22:53.544Z,48.18
2023-02-19T14:23:53.601Z,48.38
2023-02-19T14:24:53.595Z,48.38
2023-02-19T14:25:53.587Z,47.99
2023-02-19T14:26:53.560Z,47.81
2023-02-19T14:28:53.606Z,47.93
2023-02-19T14:29:53.608Z,47.51
2023-02-19T14:31:53.668Z,47.58
2023-02-19T14:33:02.741Z,47.32
2023-02-19T14:33:53.612Z,47.14
2023-02-19T14:34:53.573Z,47.14
2023-02-19T14:35:53.578Z,47.07
2023-02-19T14:36:53.631Z,47.21
2023-02-19T14:37:53.590Z,47.05
2023-02-19T14:38:53.652Z,47.58
2023-02-19T14:39:53.594Z,47.61
2023-02-19T14:40:53.629Z,47.78
2023-02-19T14:41:53.617Z,47.78
2023-02-19T14:42:53.612Z,47.50